sensor_id;sensor_type;location;lat;lon;timestamp;P1;durP1;ratioP1;P2;durP2;ratioP2
27804;SDS011;15183;51.350;11.102;2022-10-19T00:01:10;34.15;;;7.38;;
27804;SDS011;15183;51.350;11.102;2022-10-19T00:03:37;49.63;;;8.25;;
27804;SDS011;15183;51.350;11.102;2022-10-19T00:06:15;51.97;;;7.75;;
27804;SDS011;15183;51.350;11.102;2022-10-19T00:09:03;50.85;;;7.38;;
27804;SDS011;15183;51.350;11.102;2022-10-19T00:11:37;50.63;;;7.68;;
27804;SDS011;15183;51.350;11.102;2022-10-19T00:14:09;48.75;;;7.78;;
27804;SDS011;15183;51.350;11.102;2022-10-19T00:16:39;63.85;;;8.23;;
27804;SDS011;15183;51.350;11.102;2022-10-19T00:19:08;36.90;;;8.30;;
27804;SDS011;15183;51.350;11.102;2022-10-19T00:21:39;69.47;;;9.80;;
27804;SDS011;15183;51.350;11.102;2022-10-19T00:24:06;41.85;;;7.60;;
27804;SDS011;15183;51.350;11.102;2022-10-19T00:26:33;47.55;;;7.30;;
27804;SDS011;15183;51.350;11.102;2022-10-19T00:29:00;45.35;;;7.28;;
27804;SDS011;15183;51.350;11.102;2022-10-19T00:31:27;34.72;;;7.35;;
27804;SDS011;15183;51.350;11.102;2022-10-19T00:33:54;29.38;;;7.00;;
27804;SDS011;15183;51.350;11.102;2022-10-19T00:36:27;48.70;;;7.18;;
27804;SDS011;15183;51.350;11.102;2022-10-19T00:39:00;50.05;;;7.82;;
27804;SDS011;15183;51.350;11.102;2022-10-19T00:41:29;11.10;;;6.07;;
27804;SDS011;15183;51.350;11.102;2022-10-19T00:43:59;29.98;;;7.40;;
27804;SDS011;15183;51.350;11.102;2022-10-19T00:46:39;35.95;;;7.20;;
27804;SDS011;15183;51.350;11.102;2022-10-19T00:49:15;31.02;;;7.35;;
27804;SDS011;15183;51.350;11.102;2022-10-19T00:51:45;26.98;;;7.20;;
27804;SDS011;15183;51.350;11.102;2022-10-19T00:54:17;16.00;;;6.45;;
27804;SDS011;15183;51.350;11.102;2022-10-19T00:56:45;62.58;;;8.25;;
27804;SDS011;15183;51.350;11.102;2022-10-19T00:59:15;36.60;;;7.13;;
27804;SDS011;15183;51.350;11.102;2022-10-19T01:01:45;14.48;;;6.25;;
27804;SDS011;15183;51.350;11.102;2022-10-19T01:04:14;24.58;;;7.10;;
27804;SDS011;15183;51.350;11.102;2022-10-19T01:06:41;18.00;;;6.63;;
27804;SDS011;15183;51.350;11.102;2022-10-19T01:09:07;16.83;;;6.68;;
27804;SDS011;15183;51.350;11.102;2022-10-19T01:35:10;18.00;;;4.82;;
27804;SDS011;15183;51.350;11.102;2022-10-19T01:38:08;26.92;;;4.40;;
27804;SDS011;15183;51.350;11.102;2022-10-19T01:40:43;7.40;;;4.15;;
27804;SDS011;15183;51.350;11.102;2022-10-19T01:43:31;17.35;;;5.10;;
27804;SDS011;15183;51.350;11.102;2022-10-19T01:46:37;27.80;;;4.57;;
27804;SDS011;15183;51.350;11.102;2022-10-19T01:49:10;12.32;;;4.22;;
27804;SDS011;15183;51.350;11.102;2022-10-19T01:51:49;17.10;;;4.88;;
27804;SDS011;15183;51.350;11.102;2022-10-19T01:54:22;29.80;;;4.80;;
27804;SDS011;15183;51.350;11.102;2022-10-19T01:56:51;30.17;;;4.85;;
27804;SDS011;15183;51.350;11.102;2022-10-19T01:59:21;24.10;;;4.85;;
27804;SDS011;15183;51.350;11.102;2022-10-19T02:01:50;29.63;;;4.68;;
27804;SDS011;15183;51.350;11.102;2022-10-19T02:04:19;15.60;;;4.38;;
27804;SDS011;15183;51.350;11.102;2022-10-19T02:06:51;21.35;;;4.45;;
27804;SDS011;15183;51.350;11.102;2022-10-19T02:09:19;21.65;;;4.70;;
27804;SDS011;15183;51.350;11.102;2022-10-19T02:11:46;29.58;;;4.38;;
27804;SDS011;15183;51.350;11.102;2022-10-19T02:14:23;36.17;;;4.40;;
27804;SDS011;15183;51.350;11.102;2022-10-19T02:17:10;17.48;;;4.32;;
27804;SDS011;15183;51.350;11.102;2022-10-19T02:19:47;33.90;;;4.85;;
27804;SDS011;15183;51.350;11.102;2022-10-19T02:22:13;30.85;;;4.68;;
27804;SDS011;15183;51.350;11.102;2022-10-19T02:24:40;36.25;;;4.45;;
27804;SDS011;15183;51.350;11.102;2022-10-19T02:27:06;28.35;;;3.83;;
27804;SDS011;15183;51.350;11.102;2022-10-19T02:29:34;90.45;;;4.90;;
27804;SDS011;15183;51.350;11.102;2022-10-19T02:32:02;49.05;;;3.80;;
27804;SDS011;15183;51.350;11.102;2022-10-19T02:34:29;28.70;;;3.10;;
27804;SDS011;15183;51.350;11.102;2022-10-19T02:36:56;30.73;;;3.40;;
27804;SDS011;15183;51.350;11.102;2022-10-19T02:39:22;23.30;;;3.20;;
27804;SDS011;15183;51.350;11.102;2022-10-19T02:41:54;32.47;;;3.60;;
27804;SDS011;15183;51.350;11.102;2022-10-19T02:49:56;47.45;;;3.30;;
27804;SDS011;15183;51.350;11.102;2022-10-19T02:52:23;34.53;;;3.55;;
27804;SDS011;15183;51.350;11.102;2022-10-19T02:54:49;36.53;;;3.13;;
27804;SDS011;15183;51.350;11.102;2022-10-19T02:57:17;46.95;;;3.40;;
27804;SDS011;15183;51.350;11.102;2022-10-19T02:59:47;45.35;;;3.28;;
27804;SDS011;15183;51.350;11.102;2022-10-19T03:02:15;31.92;;;3.30;;
27804;SDS011;15183;51.350;11.102;2022-10-19T03:04:43;44.38;;;3.58;;
27804;SDS011;15183;51.350;11.102;2022-10-19T03:07:11;42.22;;;3.58;;
27804;SDS011;15183;51.350;11.102;2022-10-19T03:09:41;7.13;;;2.80;;
27804;SDS011;15183;51.350;11.102;2022-10-19T03:12:08;22.63;;;3.20;;
27804;SDS011;15183;51.350;11.102;2022-10-19T03:14:36;8.85;;;2.72;;
27804;SDS011;15183;51.350;11.102;2022-10-19T03:17:03;25.73;;;3.30;;
27804;SDS011;15183;51.350;11.102;2022-10-19T03:19:30;30.98;;;2.92;;
27804;SDS011;15183;51.350;11.102;2022-10-19T03:21:58;35.95;;;3.03;;
27804;SDS011;15183;51.350;11.102;2022-10-19T03:24:25;23.52;;;3.10;;
27804;SDS011;15183;51.350;11.102;2022-10-19T03:26:51;27.45;;;3.20;;
27804;SDS011;15183;51.350;11.102;2022-10-19T03:29:18;9.07;;;2.80;;
27804;SDS011;15183;51.350;11.102;2022-10-19T03:31:44;16.63;;;3.33;;
27804;SDS011;15183;51.350;11.102;2022-10-19T03:34:11;3.10;;;2.80;;
27804;SDS011;15183;51.350;11.102;2022-10-19T03:36:38;28.80;;;3.28;;
27804;SDS011;15183;51.350;11.102;2022-10-19T03:39:12;8.10;;;2.65;;
27804;SDS011;15183;51.350;11.102;2022-10-19T03:41:40;11.25;;;3.13;;
27804;SDS011;15183;51.350;11.102;2022-10-19T03:44:07;5.55;;;3.72;;
27804;SDS011;15183;51.350;11.102;2022-10-19T03:46:35;4.45;;;3.83;;
27804;SDS011;15183;51.350;11.102;2022-10-19T03:49:02;8.50;;;3.42;;
27804;SDS011;15183;51.350;11.102;2022-10-19T03:51:30;7.25;;;3.80;;
27804;SDS011;15183;51.350;11.102;2022-10-19T03:54:02;4.28;;;3.88;;
27804;SDS011;15183;51.350;11.102;2022-10-19T03:56:32;3.65;;;3.25;;
27804;SDS011;15183;51.350;11.102;2022-10-19T03:59:01;3.92;;;3.47;;
27804;SDS011;15183;51.350;11.102;2022-10-19T04:01:30;5.38;;;4.13;;
27804;SDS011;15183;51.350;11.102;2022-10-19T04:04:01;4.75;;;3.53;;
27804;SDS011;15183;51.350;11.102;2022-10-19T04:06:31;6.00;;;3.83;;
27804;SDS011;15183;51.350;11.102;2022-10-19T04:09:01;5.70;;;3.58;;
27804;SDS011;15183;51.350;11.102;2022-10-19T04:11:29;7.65;;;3.72;;
27804;SDS011;15183;51.350;11.102;2022-10-19T04:13:58;7.03;;;3.90;;
27804;SDS011;15183;51.350;11.102;2022-10-19T04:16:27;4.60;;;3.65;;
27804;SDS011;15183;51.350;11.102;2022-10-19T04:18:54;8.98;;;4.20;;
27804;SDS011;15183;51.350;11.102;2022-10-19T04:21:23;10.18;;;3.72;;
27804;SDS011;15183;51.350;11.102;2022-10-19T04:23:59;11.57;;;3.83;;
27804;SDS011;15183;51.350;11.102;2022-10-19T04:26:34;23.48;;;4.70;;
27804;SDS011;15183;51.350;11.102;2022-10-19T04:29:09;5.95;;;3.70;;
27804;SDS011;15183;51.350;11.102;2022-10-19T04:31:36;6.05;;;4.00;;
27804;SDS011;15183;51.350;11.102;2022-10-19T04:34:04;8.98;;;3.58;;
27804;SDS011;15183;51.350;11.102;2022-10-19T04:36:31;5.28;;;3.78;;
27804;SDS011;15183;51.350;11.102;2022-10-19T04:38:58;5.00;;;3.13;;
27804;SDS011;15183;51.350;11.102;2022-10-19T04:41:24;5.00;;;3.13;;
27804;SDS011;15183;51.350;11.102;2022-10-19T04:43:55;3.25;;;2.92;;
27804;SDS011;15183;51.350;11.102;2022-10-19T04:46:24;6.15;;;2.80;;
27804;SDS011;15183;51.350;11.102;2022-10-19T04:48:51;4.90;;;3.38;;
27804;SDS011;15183;51.350;11.102;2022-10-19T04:51:19;3.83;;;2.97;;
27804;SDS011;15183;51.350;11.102;2022-10-19T04:53:46;5.57;;;3.00;;
27804;SDS011;15183;51.350;11.102;2022-10-19T04:56:14;4.53;;;3.15;;
27804;SDS011;15183;51.350;11.102;2022-10-19T04:58:45;5.25;;;3.03;;
27804;SDS011;15183;51.350;11.102;2022-10-19T05:01:16;3.58;;;3.08;;
27804;SDS011;15183;51.350;11.102;2022-10-19T05:03:46;5.13;;;3.40;;
27804;SDS011;15183;51.350;11.102;2022-10-19T05:06:13;5.50;;;3.85;;
27804;SDS011;15183;51.350;11.102;2022-10-19T05:08:40;4.15;;;3.75;;
27804;SDS011;15183;51.350;11.102;2022-10-19T05:11:08;6.57;;;4.93;;
27804;SDS011;15183;51.350;11.102;2022-10-19T05:13:39;9.48;;;5.57;;
27804;SDS011;15183;51.350;11.102;2022-10-19T05:16:07;13.02;;;5.10;;
27804;SDS011;15183;51.350;11.102;2022-10-19T05:18:41;10.52;;;4.38;;
27804;SDS011;15183;51.350;11.102;2022-10-19T05:21:11;18.17;;;4.53;;
27804;SDS011;15183;51.350;11.102;2022-10-19T05:23:39;11.73;;;4.57;;
27804;SDS011;15183;51.350;11.102;2022-10-19T05:26:07;6.80;;;4.15;;
27804;SDS011;15183;51.350;11.102;2022-10-19T05:28:41;15.07;;;4.28;;
27804;SDS011;15183;51.350;11.102;2022-10-19T05:33:37;17.02;;;4.70;;
27804;SDS011;15183;51.350;11.102;2022-10-19T05:36:27;24.35;;;4.68;;
27804;SDS011;15183;51.350;11.102;2022-10-19T05:38:55;7.43;;;4.75;;
27804;SDS011;15183;51.350;11.102;2022-10-19T05:41:23;11.80;;;6.20;;
27804;SDS011;15183;51.350;11.102;2022-10-19T05:43:52;13.18;;;5.80;;
27804;SDS011;15183;51.350;11.102;2022-10-19T05:46:23;11.45;;;6.07;;
27804;SDS011;15183;51.350;11.102;2022-10-19T05:48:51;26.60;;;7.03;;
27804;SDS011;15183;51.350;11.102;2022-10-19T05:51:20;8.95;;;6.32;;
27804;SDS011;15183;51.350;11.102;2022-10-19T05:53:48;13.15;;;7.38;;
27804;SDS011;15183;51.350;11.102;2022-10-19T05:56:24;17.02;;;7.20;;
27804;SDS011;15183;51.350;11.102;2022-10-19T05:58:54;14.63;;;7.35;;
27804;SDS011;15183;51.350;11.102;2022-10-19T06:01:22;18.38;;;6.40;;
27804;SDS011;15183;51.350;11.102;2022-10-19T06:03:52;11.52;;;6.80;;
27804;SDS011;15183;51.350;11.102;2022-10-19T06:06:22;10.90;;;7.15;;
27804;SDS011;15183;51.350;11.102;2022-10-19T06:08:50;12.60;;;6.70;;
27804;SDS011;15183;51.350;11.102;2022-10-19T06:11:20;15.93;;;7.40;;
27804;SDS011;15183;51.350;11.102;2022-10-19T06:13:52;13.63;;;6.55;;
27804;SDS011;15183;51.350;11.102;2022-10-19T06:16:20;25.10;;;8.20;;
27804;SDS011;15183;51.350;11.102;2022-10-19T06:18:48;17.40;;;6.05;;
27804;SDS011;15183;51.350;11.102;2022-10-19T06:21:16;21.38;;;5.82;;
27804;SDS011;15183;51.350;11.102;2022-10-19T06:23:55;7.90;;;5.90;;
27804;SDS011;15183;51.350;11.102;2022-10-19T06:26:24;13.15;;;6.55;;
27804;SDS011;15183;51.350;11.102;2022-10-19T06:28:53;15.93;;;6.28;;
27804;SDS011;15183;51.350;11.102;2022-10-19T06:31:22;7.63;;;6.38;;
27804;SDS011;15183;51.350;11.102;2022-10-19T06:33:49;9.15;;;6.88;;
27804;SDS011;15183;51.350;11.102;2022-10-19T06:36:17;11.70;;;6.35;;
27804;SDS011;15183;51.350;11.102;2022-10-19T06:38:46;12.40;;;7.20;;
27804;SDS011;15183;51.350;11.102;2022-10-19T06:41:13;10.38;;;7.18;;
27804;SDS011;15183;51.350;11.102;2022-10-19T06:43:40;10.00;;;7.75;;
27804;SDS011;15183;51.350;11.102;2022-10-19T06:46:09;10.00;;;7.53;;
27804;SDS011;15183;51.350;11.102;2022-10-19T06:48:51;13.93;;;8.80;;
27804;SDS011;15183;51.350;11.102;2022-10-19T06:51:20;13.23;;;9.35;;
27804;SDS011;15183;51.350;11.102;2022-10-19T06:53:47;12.30;;;8.68;;
27804;SDS011;15183;51.350;11.102;2022-10-19T06:56:14;10.45;;;8.07;;
27804;SDS011;15183;51.350;11.102;2022-10-19T06:58:40;10.18;;;8.18;;
27804;SDS011;15183;51.350;11.102;2022-10-19T07:01:07;10.27;;;6.72;;
27804;SDS011;15183;51.350;11.102;2022-10-19T07:03:34;9.23;;;6.63;;
27804;SDS011;15183;51.350;11.102;2022-10-19T07:06:03;10.25;;;7.43;;
27804;SDS011;15183;51.350;11.102;2022-10-19T07:08:36;11.73;;;7.57;;
27804;SDS011;15183;51.350;11.102;2022-10-19T07:11:05;9.05;;;6.90;;
27804;SDS011;15183;51.350;11.102;2022-10-19T07:13:35;10.77;;;6.60;;
27804;SDS011;15183;51.350;11.102;2022-10-19T07:16:06;8.20;;;5.60;;
27804;SDS011;15183;51.350;11.102;2022-10-19T07:21:07;6.43;;;4.82;;
27804;SDS011;15183;51.350;11.102;2022-10-19T07:23:36;9.60;;;4.78;;
27804;SDS011;15183;51.350;11.102;2022-10-19T07:26:05;10.45;;;6.68;;
27804;SDS011;15183;51.350;11.102;2022-10-19T07:28:46;6.57;;;5.30;;
27804;SDS011;15183;51.350;11.102;2022-10-19T07:31:15;6.32;;;4.93;;
27804;SDS011;15183;51.350;11.102;2022-10-19T07:33:45;7.25;;;5.80;;
27804;SDS011;15183;51.350;11.102;2022-10-19T07:36:16;9.90;;;7.43;;
27804;SDS011;15183;51.350;11.102;2022-10-19T07:38:42;10.70;;;7.00;;
27804;SDS011;15183;51.350;11.102;2022-10-19T07:41:10;12.40;;;8.20;;
27804;SDS011;15183;51.350;11.102;2022-10-19T07:43:40;13.27;;;8.93;;
27804;SDS011;15183;51.350;11.102;2022-10-19T07:46:10;10.07;;;7.53;;
27804;SDS011;15183;51.350;11.102;2022-10-19T07:48:44;12.35;;;5.80;;
27804;SDS011;15183;51.350;11.102;2022-10-19T07:51:12;10.35;;;6.28;;
27804;SDS011;15183;51.350;11.102;2022-10-19T07:53:41;6.05;;;5.30;;
27804;SDS011;15183;51.350;11.102;2022-10-19T07:56:09;5.30;;;4.68;;
27804;SDS011;15183;51.350;11.102;2022-10-19T07:58:44;3.20;;;3.00;;
27804;SDS011;15183;51.350;11.102;2022-10-19T08:01:15;2.90;;;2.47;;
27804;SDS011;15183;51.350;11.102;2022-10-19T08:03:44;3.50;;;2.55;;
27804;SDS011;15183;51.350;11.102;2022-10-19T08:06:14;8.90;;;6.38;;
27804;SDS011;15183;51.350;11.102;2022-10-19T08:08:43;15.30;;;11.48;;
27804;SDS011;15183;51.350;11.102;2022-10-19T08:11:12;15.50;;;10.00;;
27804;SDS011;15183;51.350;11.102;2022-10-19T08:13:43;7.78;;;5.85;;
27804;SDS011;15183;51.350;11.102;2022-10-19T08:18:58;19.83;;;13.75;;
27804;SDS011;15183;51.350;11.102;2022-10-19T08:21:27;10.25;;;8.30;;
27804;SDS011;15183;51.350;11.102;2022-10-19T08:23:55;17.52;;;11.25;;
27804;SDS011;15183;51.350;11.102;2022-10-19T08:26:22;12.63;;;8.50;;
27804;SDS011;15183;51.350;11.102;2022-10-19T08:28:49;11.07;;;8.93;;
27804;SDS011;15183;51.350;11.102;2022-10-19T08:31:17;17.83;;;9.48;;
27804;SDS011;15183;51.350;11.102;2022-10-19T08:33:47;14.88;;;10.73;;
27804;SDS011;15183;51.350;11.102;2022-10-19T08:36:15;11.45;;;8.05;;
27804;SDS011;15183;51.350;11.102;2022-10-19T08:38:41;7.10;;;6.05;;
27804;SDS011;15183;51.350;11.102;2022-10-19T08:41:31;9.40;;;5.93;;
27804;SDS011;15183;51.350;11.102;2022-10-19T08:44:15;10.90;;;8.23;;
27804;SDS011;15183;51.350;11.102;2022-10-19T08:49:48;11.45;;;8.32;;
27804;SDS011;15183;51.350;11.102;2022-10-19T08:52:18;13.07;;;9.70;;
27804;SDS011;15183;51.350;11.102;2022-10-19T08:54:50;13.52;;;9.68;;
27804;SDS011;15183;51.350;11.102;2022-10-19T08:57:40;13.23;;;9.40;;
27804;SDS011;15183;51.350;11.102;2022-10-19T09:03:12;7.70;;;5.95;;
27804;SDS011;15183;51.350;11.102;2022-10-19T09:06:02;9.75;;;6.78;;
27804;SDS011;15183;51.350;11.102;2022-10-19T09:08:37;10.30;;;7.28;;
27804;SDS011;15183;51.350;11.102;2022-10-19T09:11:04;11.90;;;8.57;;
27804;SDS011;15183;51.350;11.102;2022-10-19T09:16:13;8.38;;;6.35;;
27804;SDS011;15183;51.350;11.102;2022-10-19T09:18:42;8.93;;;6.03;;
27804;SDS011;15183;51.350;11.102;2022-10-19T09:21:15;5.55;;;4.60;;
27804;SDS011;15183;51.350;11.102;2022-10-19T09:23:52;12.30;;;9.23;;
27804;SDS011;15183;51.350;11.102;2022-10-19T09:26:34;8.35;;;7.00;;
27804;SDS011;15183;51.350;11.102;2022-10-19T09:29:15;8.93;;;6.45;;
27804;SDS011;15183;51.350;11.102;2022-10-19T09:31:53;7.03;;;5.30;;
27804;SDS011;15183;51.350;11.102;2022-10-19T09:34:37;10.43;;;7.22;;
27804;SDS011;15183;51.350;11.102;2022-10-19T09:37:15;11.45;;;7.35;;
27804;SDS011;15183;51.350;11.102;2022-10-19T09:39:44;11.35;;;6.65;;
27804;SDS011;15183;51.350;11.102;2022-10-19T09:44:43;12.75;;;8.48;;
27804;SDS011;15183;51.350;11.102;2022-10-19T09:52:55;7.90;;;5.68;;
27804;SDS011;15183;51.350;11.102;2022-10-19T10:00:40;11.82;;;8.23;;
27804;SDS011;15183;51.350;11.102;2022-10-19T10:05:50;9.52;;;6.43;;
27804;SDS011;15183;51.350;11.102;2022-10-19T10:08:21;11.68;;;8.02;;
27804;SDS011;15183;51.350;11.102;2022-10-19T10:11:03;9.95;;;6.53;;
27804;SDS011;15183;51.350;11.102;2022-10-19T10:13:39;8.18;;;6.38;;
27804;SDS011;15183;51.350;11.102;2022-10-19T10:16:14;15.05;;;10.23;;
27804;SDS011;15183;51.350;11.102;2022-10-19T10:19:05;11.52;;;8.30;;
27804;SDS011;15183;51.350;11.102;2022-10-19T10:24:17;13.07;;;7.03;;
27804;SDS011;15183;51.350;11.102;2022-10-19T10:26:47;9.60;;;7.15;;
27804;SDS011;15183;51.350;11.102;2022-10-19T10:31:59;7.70;;;5.03;;
27804;SDS011;15183;51.350;11.102;2022-10-19T10:34:34;10.23;;;6.75;;
27804;SDS011;15183;51.350;11.102;2022-10-19T10:37:13;3.60;;;2.47;;
27804;SDS011;15183;51.350;11.102;2022-10-19T10:39:50;3.13;;;1.33;;
27804;SDS011;15183;51.350;11.102;2022-10-19T10:42:19;8.63;;;4.88;;
27804;SDS011;15183;51.350;11.102;2022-10-19T10:44:54;1.80;;;1.13;;
27804;SDS011;15183;51.350;11.102;2022-10-19T10:47:21;6.65;;;2.78;;
27804;SDS011;15183;51.350;11.102;2022-10-19T10:50:06;9.90;;;1.73;;
27804;SDS011;15183;51.350;11.102;2022-10-19T10:53:45;9.52;;;3.95;;
27804;SDS011;15183;51.350;11.102;2022-10-19T10:56:01;7.23;;;4.17;;
27804;SDS011;15183;51.350;11.102;2022-10-19T10:58:34;7.40;;;4.80;;
27804;SDS011;15183;51.350;11.102;2022-10-19T11:01:41;5.20;;;3.38;;
27804;SDS011;15183;51.350;11.102;2022-10-19T11:04:37;11.85;;;7.38;;
27804;SDS011;15183;51.350;11.102;2022-10-19T11:07:15;6.05;;;3.80;;
27804;SDS011;15183;51.350;11.102;2022-10-19T11:09:57;4.88;;;2.15;;
27804;SDS011;15183;51.350;11.102;2022-10-19T11:12:41;3.17;;;2.20;;
27804;SDS011;15183;51.350;11.102;2022-10-19T11:15:39;3.78;;;1.15;;
27804;SDS011;15183;51.350;11.102;2022-10-19T11:18:33;5.88;;;3.50;;
27804;SDS011;15183;51.350;11.102;2022-10-19T11:21:08;3.72;;;2.28;;
27804;SDS011;15183;51.350;11.102;2022-10-19T11:32:24;5.07;;;3.05;;
27804;SDS011;15183;51.350;11.102;2022-10-19T11:52:49;11.85;;;5.63;;
27804;SDS011;15183;51.350;11.102;2022-10-19T12:04:54;5.82;;;3.15;;
27804;SDS011;15183;51.350;11.102;2022-10-19T12:07:57;8.07;;;3.00;;
27804;SDS011;15183;51.350;11.102;2022-10-19T12:10:53;2.42;;;0.80;;
27804;SDS011;15183;51.350;11.102;2022-10-19T12:13:40;6.30;;;2.40;;
27804;SDS011;15183;51.350;11.102;2022-10-19T12:16:42;2.78;;;1.38;;
27804;SDS011;15183;51.350;11.102;2022-10-19T12:19:21;3.67;;;1.10;;
27804;SDS011;15183;51.350;11.102;2022-10-19T12:21:54;6.85;;;2.08;;
27804;SDS011;15183;51.350;11.102;2022-10-19T12:24:26;4.07;;;1.92;;
27804;SDS011;15183;51.350;11.102;2022-10-19T12:26:57;3.13;;;1.20;;
27804;SDS011;15183;51.350;11.102;2022-10-19T12:29:26;3.13;;;0.85;;
27804;SDS011;15183;51.350;11.102;2022-10-19T12:32:02;6.47;;;1.05;;
27804;SDS011;15183;51.350;11.102;2022-10-19T12:34:35;7.43;;;3.17;;
27804;SDS011;15183;51.350;11.102;2022-10-19T12:49:31;23.98;;;11.85;;
27804;SDS011;15183;51.350;11.102;2022-10-19T12:51:55;8.35;;;4.15;;
27804;SDS011;15183;51.350;11.102;2022-10-19T12:54:24;6.60;;;3.67;;
27804;SDS011;15183;51.350;11.102;2022-10-19T12:57:01;7.30;;;4.57;;
27804;SDS011;15183;51.350;11.102;2022-10-19T12:59:44;6.45;;;3.60;;
27804;SDS011;15183;51.350;11.102;2022-10-19T13:02:24;5.82;;;2.35;;
27804;SDS011;15183;51.350;11.102;2022-10-19T13:07:25;3.45;;;1.55;;
27804;SDS011;15183;51.350;11.102;2022-10-19T13:10:00;6.05;;;3.20;;
27804;SDS011;15183;51.350;11.102;2022-10-19T13:12:40;3.10;;;1.30;;
27804;SDS011;15183;51.350;11.102;2022-10-19T13:18:12;5.43;;;3.08;;
27804;SDS011;15183;51.350;11.102;2022-10-19T13:21:01;3.55;;;1.38;;
27804;SDS011;15183;51.350;11.102;2022-10-19T13:26:21;5.40;;;2.47;;
27804;SDS011;15183;51.350;11.102;2022-10-19T13:28:58;7.55;;;5.30;;
27804;SDS011;15183;51.350;11.102;2022-10-19T13:31:26;5.18;;;3.47;;
27804;SDS011;15183;51.350;11.102;2022-10-19T13:33:56;3.60;;;2.63;;
27804;SDS011;15183;51.350;11.102;2022-10-19T13:36:23;9.82;;;2.05;;
27804;SDS011;15183;51.350;11.102;2022-10-19T13:41:21;5.05;;;2.63;;
27804;SDS011;15183;51.350;11.102;2022-10-19T13:54:33;4.72;;;1.50;;
27804;SDS011;15183;51.350;11.102;2022-10-19T13:57:32;5.05;;;1.20;;
27804;SDS011;15183;51.350;11.102;2022-10-19T14:03:09;3.42;;;1.00;;
27804;SDS011;15183;51.350;11.102;2022-10-19T14:09:46;5.03;;;2.22;;
27804;SDS011;15183;51.350;11.102;2022-10-19T14:12:06;4.75;;;2.45;;
27804;SDS011;15183;51.350;11.102;2022-10-19T14:14:56;4.60;;;2.38;;
27804;SDS011;15183;51.350;11.102;2022-10-19T14:17:24;4.82;;;1.48;;
27804;SDS011;15183;51.350;11.102;2022-10-19T14:19:58;4.70;;;1.77;;
27804;SDS011;15183;51.350;11.102;2022-10-19T14:22:29;5.10;;;1.30;;
27804;SDS011;15183;51.350;11.102;2022-10-19T14:25:06;2.58;;;1.02;;
27804;SDS011;15183;51.350;11.102;2022-10-19T14:27:47;2.67;;;0.90;;
27804;SDS011;15183;51.350;11.102;2022-10-19T14:30:24;3.25;;;1.35;;
27804;SDS011;15183;51.350;11.102;2022-10-19T14:32:56;3.17;;;1.85;;
27804;SDS011;15183;51.350;11.102;2022-10-19T14:35:27;8.25;;;4.10;;
27804;SDS011;15183;51.350;11.102;2022-10-19T14:37:57;4.75;;;2.92;;
27804;SDS011;15183;51.350;11.102;2022-10-19T14:40:30;4.07;;;3.35;;
27804;SDS011;15183;51.350;11.102;2022-10-19T14:42:59;5.50;;;2.85;;
27804;SDS011;15183;51.350;11.102;2022-10-19T14:45:27;9.35;;;4.20;;
27804;SDS011;15183;51.350;11.102;2022-10-19T14:48:03;4.80;;;1.98;;
27804;SDS011;15183;51.350;11.102;2022-10-19T14:53:44;7.68;;;1.80;;
27804;SDS011;15183;51.350;11.102;2022-10-19T14:56:24;3.05;;;1.33;;
27804;SDS011;15183;51.350;11.102;2022-10-19T15:05:17;4.72;;;1.92;;
27804;SDS011;15183;51.350;11.102;2022-10-19T15:07:51;3.72;;;1.48;;
27804;SDS011;15183;51.350;11.102;2022-10-19T15:10:20;6.55;;;1.50;;
27804;SDS011;15183;51.350;11.102;2022-10-19T15:12:59;5.10;;;1.60;;
27804;SDS011;15183;51.350;11.102;2022-10-19T15:15:31;5.65;;;3.67;;
27804;SDS011;15183;51.350;11.102;2022-10-19T15:22:56;8.50;;;3.33;;
27804;SDS011;15183;51.350;11.102;2022-10-19T15:27:50;6.22;;;2.15;;
27804;SDS011;15183;51.350;11.102;2022-10-19T15:35:30;8.68;;;2.47;;
27804;SDS011;15183;51.350;11.102;2022-10-19T15:38:03;7.00;;;3.03;;
27804;SDS011;15183;51.350;11.102;2022-10-19T15:40:58;7.85;;;3.03;;
27804;SDS011;15183;51.350;11.102;2022-10-19T15:46:00;5.93;;;3.90;;
27804;SDS011;15183;51.350;11.102;2022-10-19T15:48:49;4.65;;;2.80;;
27804;SDS011;15183;51.350;11.102;2022-10-19T15:53:55;7.03;;;5.25;;
27804;SDS011;15183;51.350;11.102;2022-10-19T15:56:33;7.93;;;4.35;;
27804;SDS011;15183;51.350;11.102;2022-10-19T15:59:09;5.13;;;2.83;;
27804;SDS011;15183;51.350;11.102;2022-10-19T16:01:42;7.15;;;3.80;;
27804;SDS011;15183;51.350;11.102;2022-10-19T16:04:10;13.25;;;5.05;;
27804;SDS011;15183;51.350;11.102;2022-10-19T16:06:37;8.05;;;6.43;;
27804;SDS011;15183;51.350;11.102;2022-10-19T16:09:09;10.95;;;6.13;;
27804;SDS011;15183;51.350;11.102;2022-10-19T16:11:42;8.20;;;6.15;;
27804;SDS011;15183;51.350;11.102;2022-10-19T16:14:09;6.85;;;5.15;;
27804;SDS011;15183;51.350;11.102;2022-10-19T16:16:35;11.60;;;7.72;;
27804;SDS011;15183;51.350;11.102;2022-10-19T16:19:02;10.55;;;7.88;;
27804;SDS011;15183;51.350;11.102;2022-10-19T16:21:30;11.13;;;7.10;;
27804;SDS011;15183;51.350;11.102;2022-10-19T16:24:00;10.10;;;6.20;;
27804;SDS011;15183;51.350;11.102;2022-10-19T16:26:27;8.27;;;5.60;;
27804;SDS011;15183;51.350;11.102;2022-10-19T16:28:56;6.57;;;4.05;;
27804;SDS011;15183;51.350;11.102;2022-10-19T16:31:27;6.60;;;3.67;;
27804;SDS011;15183;51.350;11.102;2022-10-19T16:33:54;7.88;;;4.78;;
27804;SDS011;15183;51.350;11.102;2022-10-19T16:36:20;6.20;;;4.60;;
27804;SDS011;15183;51.350;11.102;2022-10-19T16:38:46;6.68;;;4.38;;
27804;SDS011;15183;51.350;11.102;2022-10-19T16:41:13;13.88;;;6.35;;
27804;SDS011;15183;51.350;11.102;2022-10-19T16:43:42;17.67;;;9.20;;
27804;SDS011;15183;51.350;11.102;2022-10-19T16:46:08;15.65;;;8.88;;
27804;SDS011;15183;51.350;11.102;2022-10-19T16:48:35;9.82;;;6.03;;
27804;SDS011;15183;51.350;11.102;2022-10-19T16:53:35;11.55;;;7.68;;
27804;SDS011;15183;51.350;11.102;2022-10-19T16:56:03;8.85;;;5.55;;
27804;SDS011;15183;51.350;11.102;2022-10-19T16:58:35;7.30;;;4.88;;
27804;SDS011;15183;51.350;11.102;2022-10-19T17:01:06;10.68;;;5.97;;
27804;SDS011;15183;51.350;11.102;2022-10-19T17:03:38;5.40;;;3.90;;
27804;SDS011;15183;51.350;11.102;2022-10-19T17:06:05;11.57;;;6.45;;
27804;SDS011;15183;51.350;11.102;2022-10-19T17:08:33;6.90;;;3.22;;
27804;SDS011;15183;51.350;11.102;2022-10-19T17:13:45;3.75;;;3.00;;
27804;SDS011;15183;51.350;11.102;2022-10-19T17:16:14;3.80;;;3.00;;
27804;SDS011;15183;51.350;11.102;2022-10-19T17:18:44;9.45;;;5.57;;
27804;SDS011;15183;51.350;11.102;2022-10-19T17:21:12;9.77;;;5.10;;
27804;SDS011;15183;51.350;11.102;2022-10-19T17:23:50;8.60;;;5.30;;
27804;SDS011;15183;51.350;11.102;2022-10-19T17:26:23;6.50;;;5.13;;
27804;SDS011;15183;51.350;11.102;2022-10-19T17:28:55;6.88;;;4.57;;
27804;SDS011;15183;51.350;11.102;2022-10-19T17:31:23;7.70;;;5.10;;
27804;SDS011;15183;51.350;11.102;2022-10-19T17:33:51;7.95;;;5.15;;
27804;SDS011;15183;51.350;11.102;2022-10-19T17:36:22;6.40;;;4.90;;
27804;SDS011;15183;51.350;11.102;2022-10-19T17:38:53;6.00;;;4.60;;
27804;SDS011;15183;51.350;11.102;2022-10-19T17:41:22;6.55;;;4.30;;
27804;SDS011;15183;51.350;11.102;2022-10-19T17:43:49;5.90;;;3.83;;
27804;SDS011;15183;51.350;11.102;2022-10-19T17:46:20;7.63;;;4.38;;
27804;SDS011;15183;51.350;11.102;2022-10-19T17:48:54;6.97;;;3.88;;
27804;SDS011;15183;51.350;11.102;2022-10-19T17:51:24;7.20;;;3.42;;
27804;SDS011;15183;51.350;11.102;2022-10-19T17:53:58;6.30;;;3.65;;